sensor_id;sensor_type;location;lat;lon;timestamp;pressure;altitude;pressure_sealevel;temperature;humidity
73106;BME280;61559;50.476;15.588;2022-09-09T00:00:53;97372.89;;;13.57;82.91
73106;BME280;61559;50.476;15.588;2022-09-09T00:03:40;97371.15;;;13.55;82.83
73106;BME280;61559;50.476;15.588;2022-09-09T00:06:23;97369.14;;;13.57;82.79
73106;BME280;61559;50.476;15.588;2022-09-09T00:09:02;97368.86;;;13.58;82.73
73106;BME280;61559;50.476;15.588;2022-09-09T00:11:42;97369.41;;;13.59;82.73
73106;BME280;61559;50.476;15.588;2022-09-09T00:14:20;97369.59;;;13.60;82.66
73106;BME280;61559;50.476;15.588;2022-09-09T00:16:58;97367.76;;;13.60;82.70
73106;BME280;61559;50.476;15.588;2022-09-09T00:19:36;97367.67;;;13.60;82.75
73106;BME280;61559;50.476;15.588;2022-09-09T00:22:16;97366.77;;;13.60;82.69
73106;BME280;61559;50.476;15.588;2022-09-09T00:24:48;97361.98;;;13.60;82.59
73106;BME280;61559;50.476;15.588;2022-09-09T00:27:28;97362.39;;;13.59;82.60
73106;BME280;61559;50.476;15.588;2022-09-09T00:30:15;97373.55;;;13.59;82.67
73106;BME280;61559;50.476;15.588;2022-09-09T00:32:50;97368.52;;;13.56;82.69
73106;BME280;61559;50.476;15.588;2022-09-09T00:35:26;97369.35;;;13.51;82.65
73106;BME280;61559;50.476;15.588;2022-09-09T00:38:04;97365.66;;;13.49;82.72
73106;BME280;61559;50.476;15.588;2022-09-09T00:40:45;97364.52;;;13.48;82.66
73106;BME280;61559;50.476;15.588;2022-09-09T00:43:27;97371.82;;;13.47;82.78
73106;BME280;61559;50.476;15.588;2022-09-09T00:49:07;97374.88;;;13.43;82.56
73106;BME280;61559;50.476;15.588;2022-09-09T00:51:46;97376.04;;;13.42;82.74
73106;BME280;61559;50.476;15.588;2022-09-09T00:54:30;97380.17;;;13.42;82.78
73106;BME280;61559;50.476;15.588;2022-09-09T00:57:16;97388.34;;;13.41;82.90
73106;BME280;61559;50.476;15.588;2022-09-09T00:59:52;97390.05;;;13.38;82.76
73106;BME280;61559;50.476;15.588;2022-09-09T01:02:28;97387.23;;;13.36;82.74
73106;BME280;61559;50.476;15.588;2022-09-09T01:05:07;97392.09;;;13.35;82.98
73106;BME280;61559;50.476;15.588;2022-09-09T01:07:46;97397.73;;;13.33;82.99
73106;BME280;61559;50.476;15.588;2022-09-09T01:10:30;97395.27;;;13.32;82.86
73106;BME280;61559;50.476;15.588;2022-09-09T01:13:11;97396.39;;;13.31;82.72
73106;BME280;61559;50.476;15.588;2022-09-09T01:15:45;97402.87;;;13.29;82.58
73106;BME280;61559;50.476;15.588;2022-09-09T01:18:19;97398.32;;;13.28;82.64
73106;BME280;61559;50.476;15.588;2022-09-09T01:20:56;97397.05;;;13.25;82.70
73106;BME280;61559;50.476;15.588;2022-09-09T01:23:55;97400.01;;;13.23;82.80
73106;BME280;61559;50.476;15.588;2022-09-09T01:26:32;97400.38;;;13.20;82.83
73106;BME280;61559;50.476;15.588;2022-09-09T01:29:08;97404.30;;;13.18;82.59
73106;BME280;61559;50.476;15.588;2022-09-09T01:31:41;97405.11;;;13.16;82.65
73106;BME280;61559;50.476;15.588;2022-09-09T01:34:14;97407.68;;;13.13;82.79
73106;BME280;61559;50.476;15.588;2022-09-09T01:36:49;97406.20;;;13.10;82.78
73106;BME280;61559;50.476;15.588;2022-09-09T01:39:24;97402.90;;;13.09;82.95
73106;BME280;61559;50.476;15.588;2022-09-09T01:42:00;97400.29;;;13.06;82.90
73106;BME280;61559;50.476;15.588;2022-09-09T01:44:32;97402.64;;;13.03;82.99
73106;BME280;61559;50.476;15.588;2022-09-09T01:47:05;97398.95;;;13.00;82.97
73106;BME280;61559;50.476;15.588;2022-09-09T01:49:36;97400.28;;;12.97;83.03
73106;BME280;61559;50.476;15.588;2022-09-09T01:52:07;97399.91;;;12.95;83.02
73106;BME280;61559;50.476;15.588;2022-09-09T01:54:39;97397.27;;;12.90;83.03
73106;BME280;61559;50.476;15.588;2022-09-09T01:57:15;97399.61;;;12.87;83.15
73106;BME280;61559;50.476;15.588;2022-09-09T01:59:57;97401.02;;;12.85;83.32
73106;BME280;61559;50.476;15.588;2022-09-09T02:02:35;97399.54;;;12.83;83.24
73106;BME280;61559;50.476;15.588;2022-09-09T02:05:14;97399.50;;;12.81;83.18
73106;BME280;61559;50.476;15.588;2022-09-09T02:07:50;97397.30;;;12.77;83.12
73106;BME280;61559;50.476;15.588;2022-09-09T02:10:28;97400.01;;;12.74;83.16
73106;BME280;61559;50.476;15.588;2022-09-09T02:13:04;97400.08;;;12.71;83.08
73106;BME280;61559;50.476;15.588;2022-09-09T02:15:44;97404.42;;;12.69;83.09
73106;BME280;61559;50.476;15.588;2022-09-09T02:18:23;97401.25;;;12.66;83.13
73106;BME280;61559;50.476;15.588;2022-09-09T02:20:56;97404.01;;;12.65;83.17
73106;BME280;61559;50.476;15.588;2022-09-09T02:23:29;97401.92;;;12.62;83.17
73106;BME280;61559;50.476;15.588;2022-09-09T02:26:03;97399.91;;;12.61;83.21
73106;BME280;61559;50.476;15.588;2022-09-09T02:28:35;97399.42;;;12.60;83.46
73106;BME280;61559;50.476;15.588;2022-09-09T02:31:07;97403.71;;;12.58;83.23
73106;BME280;61559;50.476;15.588;2022-09-09T02:33:41;97403.69;;;12.55;83.36
73106;BME280;61559;50.476;15.588;2022-09-09T02:36:14;97403.08;;;12.55;83.39
73106;BME280;61559;50.476;15.588;2022-09-09T02:38:48;97403.19;;;12.53;83.41
73106;BME280;61559;50.476;15.588;2022-09-09T02:41:26;97405.19;;;12.51;83.48
73106;BME280;61559;50.476;15.588;2022-09-09T02:43:58;97404.88;;;12.48;83.56
73106;BME280;61559;50.476;15.588;2022-09-09T02:49:24;97407.14;;;12.47;83.53
73106;BME280;61559;50.476;15.588;2022-09-09T02:52:04;97410.70;;;12.43;83.60
73106;BME280;61559;50.476;15.588;2022-09-09T02:54:37;97409.64;;;12.40;83.50
73106;BME280;61559;50.476;15.588;2022-09-09T02:57:12;97410.48;;;12.39;83.58
73106;BME280;61559;50.476;15.588;2022-09-09T02:59:45;97398.20;;;12.33;83.47
73106;BME280;61559;50.476;15.588;2022-09-09T03:02:17;97405.56;;;12.35;83.51
73106;BME280;61559;50.476;15.588;2022-09-09T03:04:48;97403.42;;;12.33;83.42
73106;BME280;61559;50.476;15.588;2022-09-09T03:07:21;97405.27;;;12.31;83.40
73106;BME280;61559;50.476;15.588;2022-09-09T03:09:52;97406.78;;;12.28;83.40
73106;BME280;61559;50.476;15.588;2022-09-09T03:12:24;97405.58;;;12.24;83.38
73106;BME280;61559;50.476;15.588;2022-09-09T03:14:53;97412.94;;;12.20;83.39
73106;BME280;61559;50.476;15.588;2022-09-09T03:17:23;97415.73;;;12.14;83.63
73106;BME280;61559;50.476;15.588;2022-09-09T03:19:54;97418.91;;;12.10;83.92
73106;BME280;61559;50.476;15.588;2022-09-09T03:22:25;97420.05;;;12.09;84.00
73106;BME280;61559;50.476;15.588;2022-09-09T03:24:56;97420.83;;;12.08;83.90
73106;BME280;61559;50.476;15.588;2022-09-09T03:27:27;97417.95;;;12.06;83.85
73106;BME280;61559;50.476;15.588;2022-09-09T03:29:58;97419.98;;;12.02;83.91
73106;BME280;61559;50.476;15.588;2022-09-09T03:32:29;97419.71;;;12.01;84.18
73106;BME280;61559;50.476;15.588;2022-09-09T03:35:00;97423.14;;;12.02;84.26
73106;BME280;61559;50.476;15.588;2022-09-09T03:37:31;97425.11;;;12.02;84.21
73106;BME280;61559;50.476;15.588;2022-09-09T03:40:02;97425.27;;;11.98;84.26
73106;BME280;61559;50.476;15.588;2022-09-09T03:42:34;97422.70;;;11.92;84.44
73106;BME280;61559;50.476;15.588;2022-09-09T03:45:08;97422.58;;;11.86;84.66
73106;BME280;61559;50.476;15.588;2022-09-09T03:47:40;97424.48;;;11.84;84.86
73106;BME280;61559;50.476;15.588;2022-09-09T03:50:12;97424.64;;;11.82;85.13
73106;BME280;61559;50.476;15.588;2022-09-09T03:52:43;97424.96;;;11.78;85.30
73106;BME280;61559;50.476;15.588;2022-09-09T03:55:14;97423.95;;;11.73;85.31
73106;BME280;61559;50.476;15.588;2022-09-09T03:57:45;97429.80;;;11.72;85.41
73106;BME280;61559;50.476;15.588;2022-09-09T04:00:16;97422.84;;;11.71;85.55
73106;BME280;61559;50.476;15.588;2022-09-09T04:02:47;97423.94;;;11.69;85.59
73106;BME280;61559;50.476;15.588;2022-09-09T04:05:19;97425.51;;;11.66;85.90
73106;BME280;61559;50.476;15.588;2022-09-09T04:07:50;97426.45;;;11.63;86.00
73106;BME280;61559;50.476;15.588;2022-09-09T04:10:22;97430.51;;;11.63;86.07
73106;BME280;61559;50.476;15.588;2022-09-09T04:12:53;97428.05;;;11.63;86.28
73106;BME280;61559;50.476;15.588;2022-09-09T04:15:25;97432.74;;;11.61;86.43
73106;BME280;61559;50.476;15.588;2022-09-09T04:17:56;97432.80;;;11.61;86.77
73106;BME280;61559;50.476;15.588;2022-09-09T04:20:27;97433.42;;;11.62;86.67
73106;BME280;61559;50.476;15.588;2022-09-09T04:22:58;97433.27;;;11.66;86.54
73106;BME280;61559;50.476;15.588;2022-09-09T04:25:30;97432.25;;;11.71;86.59
73106;BME280;61559;50.476;15.588;2022-09-09T04:28:01;97431.45;;;11.72;86.86
73106;BME280;61559;50.476;15.588;2022-09-09T04:30:32;97429.91;;;11.71;87.12
73106;BME280;61559;50.476;15.588;2022-09-09T04:33:04;97431.00;;;11.71;87.09
73106;BME280;61559;50.476;15.588;2022-09-09T04:35:35;97428.49;;;11.64;87.54
73106;BME280;61559;50.476;15.588;2022-09-09T04:38:07;97435.48;;;11.66;87.34
73106;BME280;61559;50.476;15.588;2022-09-09T04:40:39;97437.80;;;11.67;87.39
73106;BME280;61559;50.476;15.588;2022-09-09T04:43:12;97438.17;;;11.69;87.29
73106;BME280;61559;50.476;15.588;2022-09-09T04:45:46;97438.66;;;11.73;87.25
73106;BME280;61559;50.476;15.588;2022-09-09T04:48:18;97441.14;;;11.76;87.22
73106;BME280;61559;50.476;15.588;2022-09-09T04:50:57;97440.11;;;11.79;87.23
73106;BME280;61559;50.476;15.588;2022-09-09T04:53:28;97437.86;;;11.80;87.25
73106;BME280;61559;50.476;15.588;2022-09-09T04:56:08;97438.94;;;11.81;87.17
73106;BME280;61559;50.476;15.588;2022-09-09T04:58:40;97443.43;;;11.81;87.27
73106;BME280;61559;50.476;15.588;2022-09-09T05:01:13;97447.30;;;11.78;87.39
73106;BME280;61559;50.476;15.588;2022-09-09T05:03:46;97444.59;;;11.75;87.36
73106;BME280;61559;50.476;15.588;2022-09-09T05:06:18;97452.40;;;11.75;87.35
73106;BME280;61559;50.476;15.588;2022-09-09T05:08:49;97449.41;;;11.74;87.29
73106;BME280;61559;50.476;15.588;2022-09-09T05:11:22;97446.77;;;11.74;87.38
73106;BME280;61559;50.476;15.588;2022-09-09T05:13:54;97446.52;;;11.74;87.71
73106;BME280;61559;50.476;15.588;2022-09-09T05:16:25;97445.58;;;11.78;87.45
73106;BME280;61559;50.476;15.588;2022-09-09T05:18:57;97444.33;;;11.84;87.45
73106;BME280;61559;50.476;15.588;2022-09-09T05:21:29;97443.49;;;11.90;87.22
73106;BME280;61559;50.476;15.588;2022-09-09T05:24:01;97445.89;;;11.99;87.04
73106;BME280;61559;50.476;15.588;2022-09-09T05:26:32;97448.01;;;12.07;86.86
73106;BME280;61559;50.476;15.588;2022-09-09T05:29:03;97448.23;;;12.14;86.60
73106;BME280;61559;50.476;15.588;2022-09-09T05:31:34;97448.75;;;12.17;86.29
73106;BME280;61559;50.476;15.588;2022-09-09T05:34:06;97452.15;;;12.17;86.07
73106;BME280;61559;50.476;15.588;2022-09-09T05:36:37;97452.41;;;12.22;86.07
73106;BME280;61559;50.476;15.588;2022-09-09T05:39:08;97455.86;;;12.26;85.88
73106;BME280;61559;50.476;15.588;2022-09-09T05:41:41;97455.52;;;12.23;85.95
73106;BME280;61559;50.476;15.588;2022-09-09T05:44:12;97462.59;;;12.24;85.98
73106;BME280;61559;50.476;15.588;2022-09-09T05:46:43;97463.33;;;12.31;85.87
73106;BME280;61559;50.476;15.588;2022-09-09T05:49:14;97464.70;;;12.34;85.77
73106;BME280;61559;50.476;15.588;2022-09-09T05:51:46;97456.98;;;12.40;85.89
73106;BME280;61559;50.476;15.588;2022-09-09T05:54:17;97453.29;;;12.48;85.85
73106;BME280;61559;50.476;15.588;2022-09-09T05:56:48;97458.95;;;12.59;85.67
73106;BME280;61559;50.476;15.588;2022-09-09T05:59:22;97451.61;;;12.64;85.50
73106;BME280;61559;50.476;15.588;2022-09-09T06:01:53;97457.23;;;12.76;85.31
73106;BME280;61559;50.476;15.588;2022-09-09T06:04:24;97452.94;;;12.83;85.27
73106;BME280;61559;50.476;15.588;2022-09-09T06:06:55;97459.93;;;12.91;85.17
73106;BME280;61559;50.476;15.588;2022-09-09T06:09:26;97457.33;;;13.01;85.12
73106;BME280;61559;50.476;15.588;2022-09-09T06:11:59;97459.89;;;13.10;85.00
73106;BME280;61559;50.476;15.588;2022-09-09T06:14:30;97459.15;;;13.21;84.89
73106;BME280;61559;50.476;15.588;2022-09-09T06:17:01;97464.27;;;13.29;84.69
73106;BME280;61559;50.476;15.588;2022-09-09T06:19:32;97466.29;;;13.40;84.71
73106;BME280;61559;50.476;15.588;2022-09-09T06:22:03;97464.46;;;13.50;84.83
73106;BME280;61559;50.476;15.588;2022-09-09T06:24:34;97462.76;;;13.63;84.76
73106;BME280;61559;50.476;15.588;2022-09-09T06:27:05;97467.60;;;13.78;84.37
73106;BME280;61559;50.476;15.588;2022-09-09T06:29:36;97463.41;;;13.88;83.93
73106;BME280;61559;50.476;15.588;2022-09-09T06:32:07;97465.87;;;13.96;83.87
73106;BME280;61559;50.476;15.588;2022-09-09T06:34:39;97473.02;;;14.05;83.65
73106;BME280;61559;50.476;15.588;2022-09-09T06:37:10;97476.11;;;14.13;83.69
73106;BME280;61559;50.476;15.588;2022-09-09T06:39:41;97475.59;;;14.21;83.39
73106;BME280;61559;50.476;15.588;2022-09-09T06:42:13;97475.41;;;14.28;83.13
73106;BME280;61559;50.476;15.588;2022-09-09T06:44:45;97472.91;;;14.35;82.96
73106;BME280;61559;50.476;15.588;2022-09-09T06:47:16;97471.84;;;14.41;82.81
73106;BME280;61559;50.476;15.588;2022-09-09T06:49:47;97470.52;;;14.48;82.85
73106;BME280;61559;50.476;15.588;2022-09-09T06:52:18;97471.75;;;14.55;82.86
73106;BME280;61559;50.476;15.588;2022-09-09T06:54:49;97469.70;;;14.62;82.65
73106;BME280;61559;50.476;15.588;2022-09-09T06:57:20;97465.23;;;14.69;82.66
73106;BME280;61559;50.476;15.588;2022-09-09T07:00:08;97471.00;;;14.77;82.70
73106;BME280;61559;50.476;15.588;2022-09-09T07:02:40;97469.81;;;14.82;82.65
73106;BME280;61559;50.476;15.588;2022-09-09T07:05:11;97468.15;;;14.87;82.71
73106;BME280;61559;50.476;15.588;2022-09-09T07:07:42;97470.25;;;14.97;82.65
73106;BME280;61559;50.476;15.588;2022-09-09T07:10:13;97472.87;;;15.05;82.52
73106;BME280;61559;50.476;15.588;2022-09-09T07:12:44;97481.00;;;15.07;82.06
73106;BME280;61559;50.476;15.588;2022-09-09T07:15:15;97480.36;;;15.08;82.09
73106;BME280;61559;50.476;15.588;2022-09-09T07:17:48;97479.46;;;15.08;81.90
73106;BME280;61559;50.476;15.588;2022-09-09T07:20:19;97478.93;;;15.11;81.72
73106;BME280;61559;50.476;15.588;2022-09-09T07:22:51;97480.28;;;15.12;81.70
73106;BME280;61559;50.476;15.588;2022-09-09T07:25:25;97486.48;;;15.13;81.75
73106;BME280;61559;50.476;15.588;2022-09-09T07:27:57;97480.58;;;15.14;81.59
73106;BME280;61559;50.476;15.588;2022-09-09T07:30:28;97486.84;;;15.20;81.74
73106;BME280;61559;50.476;15.588;2022-09-09T07:32:59;97482.69;;;15.26;81.76
73106;BME280;61559;50.476;15.588;2022-09-09T07:35:32;97488.91;;;15.32;81.80
73106;BME280;61559;50.476;15.588;2022-09-09T07:38:03;97487.91;;;15.37;81.80
73106;BME280;61559;50.476;15.588;2022-09-09T07:40:36;97490.45;;;15.45;81.62
73106;BME280;61559;50.476;15.588;2022-09-09T07:43:07;97490.63;;;15.52;81.59
73106;BME280;61559;50.476;15.588;2022-09-09T07:45:42;97488.75;;;15.58;81.63
73106;BME280;61559;50.476;15.588;2022-09-09T07:48:13;97492.20;;;15.64;81.47
73106;BME280;61559;50.476;15.588;2022-09-09T07:50:44;97495.70;;;15.71;81.39
73106;BME280;61559;50.476;15.588;2022-09-09T07:53:15;97494.20;;;15.82;81.34
73106;BME280;61559;50.476;15.588;2022-09-09T07:55:45;97490.23;;;15.90;81.29
73106;BME280;61559;50.476;15.588;2022-09-09T07:58:16;97486.15;;;15.98;80.99
73106;BME280;61559;50.476;15.588;2022-09-09T08:00:47;97487.87;;;16.06;80.84
73106;BME280;61559;50.476;15.588;2022-09-09T08:03:19;97491.73;;;16.14;80.61
73106;BME280;61559;50.476;15.588;2022-09-09T08:05:51;97496.80;;;16.22;80.51
73106;BME280;61559;50.476;15.588;2022-09-09T08:08:22;97494.41;;;16.34;80.28
73106;BME280;61559;50.476;15.588;2022-09-09T08:10:53;97497.50;;;16.50;79.91
73106;BME280;61559;50.476;15.588;2022-09-09T08:13:24;97505.82;;;16.65;80.23
73106;BME280;61559;50.476;15.588;2022-09-09T08:15:55;97507.67;;;16.82;79.91
73106;BME280;61559;50.476;15.588;2022-09-09T08:18:34;97513.17;;;16.95;79.48
73106;BME280;61559;50.476;15.588;2022-09-09T08:21:12;97508.27;;;17.08;79.06
73106;BME280;61559;50.476;15.588;2022-09-09T08:23:45;97500.48;;;17.25;78.37
73106;BME280;61559;50.476;15.588;2022-09-09T08:26:17;97502.06;;;17.38;78.01
73106;BME280;61559;50.476;15.588;2022-09-09T08:28:51;97504.05;;;17.52;77.97
73106;BME280;61559;50.476;15.588;2022-09-09T08:31:24;97503.70;;;17.67;77.19
73106;BME280;61559;50.476;15.588;2022-09-09T08:33:57;97500.41;;;17.83;76.94
73106;BME280;61559;50.476;15.588;2022-09-09T08:36:31;97491.98;;;17.99;77.00
73106;BME280;61559;50.476;15.588;2022-09-09T08:39:04;97486.95;;;18.15;75.78
73106;BME280;61559;50.476;15.588;2022-09-09T08:41:59;97484.96;;;18.27;75.53
73106;BME280;61559;50.476;15.588;2022-09-09T08:44:47;97484.15;;;18.35;74.65
73106;BME280;61559;50.476;15.588;2022-09-09T08:47:26;97484.46;;;18.35;74.56
73106;BME280;61559;50.476;15.588;2022-09-09T08:50:16;97484.81;;;18.41;74.26
73106;BME280;61559;50.476;15.588;2022-09-09T08:52:54;97492.27;;;18.48;74.09
73106;BME280;61559;50.476;15.588;2022-09-09T08:55:31;97490.64;;;18.57;73.80
73106;BME280;61559;50.476;15.588;2022-09-09T08:58:11;97495.61;;;18.67;73.51
73106;BME280;61559;50.476;15.588;2022-09-09T09:00:52;97492.35;;;18.78;72.75
73106;BME280;61559;50.476;15.588;2022-09-09T09:03:30;97496.84;;;18.87;72.37
73106;BME280;61559;50.476;15.588;2022-09-09T09:06:09;97495.93;;;18.95;72.53
73106;BME280;61559;50.476;15.588;2022-09-09T09:08:48;97493.42;;;18.99;71.78
73106;BME280;61559;50.476;15.588;2022-09-09T09:11:22;97497.13;;;18.97;71.58
73106;BME280;61559;50.476;15.588;2022-09-09T09:13:56;97490.99;;;19.03;71.81
73106;BME280;61559;50.476;15.588;2022-09-09T09:16:34;97494.02;;;19.11;71.72
73106;BME280;61559;50.476;15.588;2022-09-09T09:19:14;97498.03;;;19.19;71.63
73106;BME280;61559;50.476;15.588;2022-09-09T09:21:50;97494.77;;;19.22;70.93
73106;BME280;61559;50.476;15.588;2022-09-09T09:24:27;97490.11;;;19.18;70.13
73106;BME280;61559;50.476;15.588;2022-09-09T09:27:10;97486.64;;;19.12;70.85
73106;BME280;61559;50.476;15.588;2022-09-09T09:29:43;97491.79;;;19.13;70.87
73106;BME280;61559;50.476;15.588;2022-09-09T09:32:36;97488.88;;;19.13;70.39
73106;BME280;61559;50.476;15.588;2022-09-09T09:35:13;97487.84;;;19.13;69.92
73106;BME280;61559;50.476;15.588;2022-09-09T09:37:44;97487.92;;;19.14;69.47
73106;BME280;61559;50.476;15.588;2022-09-09T09:40:35;97490.14;;;19.20;68.27
73106;BME280;61559;50.476;15.588;2022-09-09T09:43:06;97493.35;;;19.22;67.29
73106;BME280;61559;50.476;15.588;2022-09-09T09:45:44;97490.07;;;19.22;67.53
73106;BME280;61559;50.476;15.588;2022-09-09T09:48:36;97476.52;;;19.14;67.64
73106;BME280;61559;50.476;15.588;2022-09-09T09:51:11;97477.75;;;19.10;67.28
73106;BME280;61559;50.476;15.588;2022-09-09T09:53:46;97477.88;;;19.03;67.89
73106;BME280;61559;50.476;15.588;2022-09-09T09:56:27;97484.58;;;19.02;68.11
73106;BME280;61559;50.476;15.588;2022-09-09T09:58:59;97485.85;;;19.02;67.03
73106;BME280;61559;50.476;15.588;2022-09-09T10:01:46;97480.18;;;19.02;67.29
73106;BME280;61559;50.476;15.588;2022-09-09T10:04:19;97475.49;;;19.06;67.27
73106;BME280;61559;50.476;15.588;2022-09-09T10:06:52;97475.04;;;19.06;66.61
73106;BME280;61559;50.476;15.588;2022-09-09T10:09:26;97476.23;;;19.08;67.04
73106;BME280;61559;50.476;15.588;2022-09-09T10:12:03;97479.10;;;19.11;67.00
73106;BME280;61559;50.476;15.588;2022-09-09T10:14:40;97475.09;;;19.13;66.77
73106;BME280;61559;50.476;15.588;2022-09-09T10:17:23;97473.45;;;19.14;66.87
73106;BME280;61559;50.476;15.588;2022-09-09T10:20:16;97471.66;;;19.15;66.91
73106;BME280;61559;50.476;15.588;2022-09-09T10:22:52;97472.86;;;19.25;67.07
73106;BME280;61559;50.476;15.588;2022-09-09T10:25:36;97468.98;;;19.36;67.81
73106;BME280;61559;50.476;15.588;2022-09-09T10:28:33;97466.56;;;19.47;67.34
73106;BME280;61559;50.476;15.588;2022-09-09T10:31:16;97466.70;;;19.51;67.21
73106;BME280;61559;50.476;15.588;2022-09-09T10:33:51;97456.73;;;19.56;66.77
73106;BME280;61559;50.476;15.588;2022-09-09T10:36:29;97451.89;;;19.59;67.22
73106;BME280;61559;50.476;15.588;2022-09-09T10:39:03;97450.13;;;19.66;66.45
73106;BME280;61559;50.476;15.588;2022-09-09T10:41:45;97452.64;;;19.73;66.67
73106;BME280;61559;50.476;15.588;2022-09-09T10:44:38;97453.95;;;19.86;66.28
73106;BME280;61559;50.476;15.588;2022-09-09T10:47:28;97449.34;;;19.97;65.16
73106;BME280;61559;50.476;15.588;2022-09-09T10:50:33;97447.71;;;20.05;64.38
73106;BME280;61559;50.476;15.588;2022-09-09T10:53:36;97444.69;;;20.14;65.40
73106;BME280;61559;50.476;15.588;2022-09-09T10:56:10;97446.20;;;20.22;65.25
73106;BME280;61559;50.476;15.588;2022-09-09T10:58:48;97443.54;;;20.34;63.25
73106;BME280;61559;50.476;15.588;2022-09-09T11:01:24;97443.51;;;20.43;63.56
73106;BME280;61559;50.476;15.588;2022-09-09T11:04:02;97440.45;;;20.50;63.86
73106;BME280;61559;50.476;15.588;2022-09-09T11:06:39;97438.96;;;20.58;64.28
73106;BME280;61559;50.476;15.588;2022-09-09T11:09:15;97437.25;;;20.61;64.01
73106;BME280;61559;50.476;15.588;2022-09-09T11:11:51;97438.22;;;20.65;63.65
73106;BME280;61559;50.476;15.588;2022-09-09T11:14:28;97443.60;;;20.74;63.45
73106;BME280;61559;50.476;15.588;2022-09-09T11:17:10;97446.20;;;20.83;63.64
73106;BME280;61559;50.476;15.588;2022-09-09T11:19:44;97443.35;;;21.00;63.32
73106;BME280;61559;50.476;15.588;2022-09-09T11:22:22;97441.02;;;21.17;63.06
73106;BME280;61559;50.476;15.588;2022-09-09T11:25:01;97435.02;;;21.31;61.90
73106;BME280;61559;50.476;15.588;2022-09-09T11:27:40;97433.20;;;21.46;61.70
73106;BME280;61559;50.476;15.588;2022-09-09T11:30:16;97430.77;;;21.59;60.73
73106;BME280;61559;50.476;15.588;2022-09-09T11:33:26;97435.77;;;21.71;60.29
73106;BME280;61559;50.476;15.588;2022-09-09T11:36:25;97428.89;;;21.72;57.60
73106;BME280;61559;50.476;15.588;2022-09-09T11:39:09;97431.93;;;21.80;59.11
73106;BME280;61559;50.476;15.588;2022-09-09T11:41:47;97427.75;;;21.94;59.75
73106;BME280;61559;50.476;15.588;2022-09-09T11:44:23;97424.21;;;22.03;58.07
73106;BME280;61559;50.476;15.588;2022-09-09T11:46:58;97420.39;;;21.98;56.66
73106;BME280;61559;50.476;15.588;2022-09-09T11:49:30;97420.52;;;22.00;57.57
73106;BME280;61559;50.476;15.588;2022-09-09T11:52:18;97423.09;;;22.03;56.58
73106;BME280;61559;50.476;15.588;2022-09-09T11:54:54;97426.80;;;22.07;57.73
73106;BME280;61559;50.476;15.588;2022-09-09T11:57:32;97417.84;;;22.16;56.85
73106;BME280;61559;50.476;15.588;2022-09-09T12:00:27;97414.96;;;22.20;56.20
73106;BME280;61559;50.476;15.588;2022-09-09T12:02:58;97402.88;;;22.25;55.96
73106;BME280;61559;50.476;15.588;2022-09-09T12:05:42;97404.84;;;22.33;56.21
73106;BME280;61559;50.476;15.588;2022-09-09T12:08:23;97399.31;;;22.41;55.29
73106;BME280;61559;50.476;15.588;2022-09-09T12:10:59;97407.09;;;22.46;54.57
73106;BME280;61559;50.476;15.588;2022-09-09T12:13:32;97412.17;;;22.47;54.74
73106;BME280;61559;50.476;15.588;2022-09-09T12:16:03;97411.36;;;22.45;54.39
73106;BME280;61559;50.476;15.588;2022-09-09T12:18:37;97415.92;;;22.46;54.07
73106;BME280;61559;50.476;15.588;2022-09-09T12:21:14;97412.80;;;22.43;54.90
73106;BME280;61559;50.476;15.588;2022-09-09T12:23:49;97404.45;;;22.46;54.34
73106;BME280;61559;50.476;15.588;2022-09-09T12:26:32;97389.41;;;22.51;54.24
73106;BME280;61559;50.476;15.588;2022-09-09T12:29:12;97388.79;;;22.61;54.26
73106;BME280;61559;50.476;15.588;2022-09-09T12:31:51;97393.79;;;22.73;53.68
73106;BME280;61559;50.476;15.588;2022-09-09T12:34:34;97402.88;;;22.82;53.97
73106;BME280;61559;50.476;15.588;2022-09-09T12:37:14;97399.39;;;22.88;53.24
73106;BME280;61559;50.476;15.588;2022-09-09T12:39:53;97388.99;;;22.92;51.91
73106;BME280;61559;50.476;15.588;2022-09-09T12:42:26;97379.39;;;22.93;50.91
73106;BME280;61559;50.476;15.588;2022-09-09T12:44:58;97382.40;;;22.91;51.30
73106;BME280;61559;50.476;15.588;2022-09-09T12:47:38;97373.41;;;22.90;50.11
73106;BME280;61559;50.476;15.588;2022-09-09T12:50:29;97384.44;;;22.89;51.47
73106;BME280;61559;50.476;15.588;2022-09-09T12:53:03;97374.57;;;22.94;51.55
73106;BME280;61559;50.476;15.588;2022-09-09T12:55:36;97365.85;;;22.95;51.34
73106;BME280;61559;50.476;15.588;2022-09-09T12:58:11;97367.06;;;22.94;50.84
73106;BME280;61559;50.476;15.588;2022-09-09T13:00:51;97364.77;;;22.91;50.04
73106;BME280;61559;50.476;15.588;2022-09-09T13:03:23;97362.14;;;22.83;49.11
73106;BME280;61559;50.476;15.588;2022-09-09T13:05:59;97368.70;;;22.76;49.13
73106;BME280;61559;50.476;15.588;2022-09-09T13:08:40;97369.86;;;22.72;49.86
73106;BME280;61559;50.476;15.588;2022-09-09T13:11:15;97365.30;;;22.71;49.96
73106;BME280;61559;50.476;15.588;2022-09-09T13:13:53;97370.17;;;22.71;50.38
73106;BME280;61559;50.476;15.588;2022-09-09T13:16:27;97369.55;;;22.75;51.21
73106;BME280;61559;50.476;15.588;2022-09-09T13:19:08;97370.30;;;22.73;50.85
73106;BME280;61559;50.476;15.588;2022-09-09T13:21:41;97372.70;;;22.74;51.64
73106;BME280;61559;50.476;15.588;2022-09-09T13:24:27;97370.71;;;22.78;51.73
73106;BME280;61559;50.476;15.588;2022-09-09T13:27:00;97366.81;;;22.80;51.13
73106;BME280;61559;50.476;15.588;2022-09-09T13:29:32;97365.89;;;22.82;51.82
73106;BME280;61559;50.476;15.588;2022-09-09T13:32:15;97362.93;;;22.87;51.74
73106;BME280;61559;50.476;15.588;2022-09-09T13:34:51;97364.09;;;22.91;50.81
73106;BME280;61559;50.476;15.588;2022-09-09T13:37:26;97358.21;;;22.93;51.18
73106;BME280;61559;50.476;15.588;2022-09-09T13:39:58;97356.65;;;23.01;51.28